Time;durP1;ratioP1;P1;durP2;ratioP2;P2;SDS_P1;SDS_P2;PMS_P1;PMS_P2;Temp;Humidity;BMP_temperature;BMP_pressure;BME280_temperature;BME280_humidity;BME280_pressure;Samples;Min_cycle;Max_cycle;Signal;HPM_P1;HPM_P2
2023/10/08 00:00:45;;;;;;;0.00;0.00;;;;;;;13.60;92.41;101257.66;4967206;28;20470;-77
2023/10/08 00:03:11;;;;;;;0.00;0.00;;;;;;;13.57;92.16;101257.38;4960917;28;20037;-75
2023/10/08 00:05:37;;;;;;;0.00;0.00;;;;;;;13.49;92.68;101250.47;4956733;28;20027;-75
2023/10/08 00:08:04;;;;;;;0.00;0.00;;;;;;;13.53;92.87;101250.75;4972884;28;20029;-75
2023/10/08 00:10:39;;;;;;;0.00;0.00;;;;;;;13.49;92.43;101244.97;4958235;28;20038;-74
2023/10/08 00:13:12;;;;;;;0.00;0.00;;;;;;;13.50;92.67;101245.78;4978932;28;20342;-75
2023/10/08 00:15:50;;;;;;;0.00;0.00;;;;;;;13.48;92.56;101239.72;4962139;28;20074;-75
2023/10/08 00:18:15;;;;;;;0.00;0.00;;;;;;;13.42;92.51;101244.38;4959909;28;20073;-74
2023/10/08 00:21:06;;;;;;;0.00;0.00;;;;;;;13.40;92.97;101252.88;4979875;28;20129;-74
2023/10/08 00:23:34;;;;;;;0.00;0.00;;;;;;;13.33;92.58;101249.50;4963347;28;20037;-75
2023/10/08 00:26:06;;;;;;;0.00;0.00;;;;;;;13.27;92.83;101247.81;4950890;28;20038;-75
2023/10/08 00:28:31;;;;;;;0.00;0.00;;;;;;;13.27;93.19;101256.03;4962024;28;20367;-75
2023/10/08 00:31:05;;;;;;;0.00;0.00;;;;;;;13.04;93.43;101222.38;4966401;28;20038;-76
2023/10/08 00:33:31;;;;;;;0.00;0.00;;;;;;;13.17;93.67;101250.47;4962629;28;20053;-74
2023/10/08 00:35:56;;;;;;;0.00;0.00;;;;;;;13.14;93.76;101248.25;4966942;28;20382;-74
2023/10/08 00:38:23;;;;;;;0.00;0.00;;;;;;;13.16;93.77;101254.34;4947142;28;20035;-76
2023/10/08 00:40:49;;;;;;;0.00;0.00;;;;;;;13.13;93.72;101252.09;4931097;29;20031;-75
2023/10/08 00:43:42;;;;;;;0.00;0.00;;;;;;;13.14;93.67;101256.50;4962828;28;20134;-75
2023/10/08 00:46:22;;;;;;;0.00;0.00;;;;;;;13.04;93.61;101244.34;4969193;28;20050;-72
2023/10/08 00:48:49;;;;;;;0.00;0.00;;;;;;;13.07;93.68;101260.28;4967100;28;20046;-76
2023/10/08 00:53:50;;;;;;;0.00;0.00;;;;;;;13.02;93.87;101262.97;4957975;28;20106;-74
2023/10/08 00:56:19;;;;;;;0.00;0.00;;;;;;;13.00;93.87;101251.44;4955921;28;20093;-74
2023/10/08 00:58:52;;;;;;;0.00;0.00;;;;;;;13.04;94.40;101265.47;4964200;28;20031;-75
2023/10/08 01:01:20;;;;;;;0.00;0.00;;;;;;;13.00;94.34;101259.69;4981314;28;20117;-75
2023/10/08 01:03:45;;;;;;;0.00;0.00;;;;;;;13.02;93.88;101262.97;4953543;28;20137;-76
2023/10/08 01:06:12;;;;;;;0.00;0.00;;;;;;;12.95;94.11;101234.91;4972434;28;20568;-74
2023/10/08 01:08:45;;;;;;;0.00;0.00;;;;;;;13.00;94.15;101236.91;4964477;28;20026;-74
2023/10/08 01:12:06;;;;;;;0.00;0.00;;;;;;;12.97;94.41;101243.75;4962637;28;20400;-77
2023/10/08 01:14:12;;;;;;;0.00;0.00;;;;;;;12.90;94.19;101243.13;4953097;28;20046;-74
2023/10/08 01:16:39;;;;;;;0.00;0.00;;;;;;;12.98;94.45;101244.56;4959450;28;20023;-74
2023/10/08 01:19:12;;;;;;;0.00;0.00;;;;;;;12.90;93.64;101234.91;4956489;28;20058;-74
2023/10/08 01:21:39;;;;;;;0.00;0.00;;;;;;;12.94;94.08;101244.28;4966509;28;20460;-73
2023/10/08 01:24:06;;;;;;;0.00;0.00;;;;;;;12.92;93.92;101246.44;4952112;28;20039;-74
2023/10/08 01:26:39;;;;;;;0.00;0.00;;;;;;;12.90;93.76;101243.13;4956631;28;20037;-74
2023/10/08 01:29:08;;;;;;;0.00;0.00;;;;;;;12.85;93.85;101241.19;4962355;28;20019;-75
2023/10/08 01:31:33;;;;;;;0.00;0.00;;;;;;;12.86;93.73;101242.00;4957554;28;20027;-75
2023/10/08 01:34:00;;;;;;;0.00;0.00;;;;;;;12.86;93.98;101242.00;4948977;28;20393;-74
2023/10/08 01:36:26;;;;;;;0.00;0.00;;;;;;;12.84;93.67;101224.97;4945336;28;20027;-72
2023/10/08 01:38:51;;;;;;;0.00;0.00;;;;;;;12.79;94.11;101235.91;4962180;28;20080;-75
2023/10/08 01:41:30;;;;;;;0.00;0.00;;;;;;;12.73;94.45;101241.34;4965106;28;20022;-74
2023/10/08 01:43:58;;;;;;;0.00;0.00;;;;;;;12.65;94.18;101230.84;4965323;28;20031;-74
2023/10/08 01:46:25;;;;;;;0.05;0.05;;;;;;;12.58;94.69;101233.78;4960955;28;20049;-75
2023/10/08 01:49:34;;;;;;;0.00;0.00;;;;;;;12.58;94.33;101241.19;4963540;28;20122;-76
2023/10/08 01:51:46;;;;;;;0.00;0.00;;;;;;;12.56;94.35;101237.91;4956823;28;20482;-76
2023/10/08 01:54:14;;;;;;;0.00;0.00;;;;;;;12.54;94.72;101234.56;4946066;28;20034;-75
2023/10/08 01:56:41;;;;;;;0.00;0.00;;;;;;;12.53;94.65;101227.44;4966349;28;20130;-76
2023/10/08 01:59:13;;;;;;;0.00;0.00;;;;;;;12.55;95.06;101233.50;4960127;28;20062;-75
2023/10/08 02:01:39;;;;;;;0.00;0.00;;;;;;;12.60;94.74;101233.56;4964905;28;20042;-75
2023/10/08 02:04:09;;;;;;;0.00;0.00;;;;;;;12.61;95.13;101243.41;4958578;28;20039;-75
2023/10/08 02:06:35;;;;;;;0.00;0.00;;;;;;;12.58;94.91;101241.19;4960759;28;20066;-74
2023/10/08 02:09:07;;;;;;;0.00;0.00;;;;;;;12.60;94.99;101243.69;4960684;28;20023;-74
2023/10/08 02:11:53;;;;;;;0.00;0.00;;;;;;;12.59;95.25;101248.34;4952914;28;20035;-75
2023/10/08 02:14:20;;;;;;;0.00;0.00;;;;;;;12.57;94.79;101245.88;4959722;28;20039;-74
2023/10/08 02:16:46;;;;;;;0.00;0.00;;;;;;;12.54;94.86;101245.53;4966574;28;20026;-74
2023/10/08 02:19:12;;;;;;;0.00;0.00;;;;;;;12.47;95.02;101245.75;4950697;28;20031;-77
2023/10/08 02:21:41;;;;;;;0.00;0.00;;;;;;;12.36;95.84;101233.84;4965110;28;20038;-76
2023/10/08 02:24:08;;;;;;;0.00;0.00;;;;;;;12.32;96.42;101240.09;4972394;28;20035;-75
2023/10/08 02:26:36;;;;;;;0.00;0.00;;;;;;;12.25;95.90;101237.59;4963396;28;20505;-75
2023/10/08 02:29:10;;;;;;;0.00;0.00;;;;;;;12.19;96.35;101230.38;4963824;28;20082;-75
2023/10/08 02:31:37;;;;;;;0.00;0.00;;;;;;;12.09;96.98;101230.25;4964928;28;20081;-75
2023/10/08 02:34:03;;;;;;;0.00;0.00;;;;;;;12.09;97.29;101233.00;4971077;28;20107;-77
2023/10/08 02:36:30;;;;;;;0.00;0.00;;;;;;;12.04;97.85;101226.34;4963845;28;20057;-76
2023/10/08 02:38:56;;;;;;;0.00;0.00;;;;;;;11.99;97.91;101226.31;4949921;28;20055;-76
2023/10/08 02:41:24;;;;;;;0.00;0.00;;;;;;;12.05;98.30;101243.66;4964836;28;20516;-77
2023/10/08 02:43:50;;;;;;;0.00;0.00;;;;;;;12.03;98.46;101240.31;4968005;28;20030;-75
2023/10/08 02:46:15;;;;;;;0.00;0.00;;;;;;;12.04;98.50;101236.50;4962193;28;20054;-76
2023/10/08 02:48:41;;;;;;;0.00;0.00;;;;;;;12.01;98.36;101232.34;4978327;28;20031;-75
2023/10/08 02:51:13;;;;;;;0.00;0.00;;;;;;;12.03;98.34;101235.69;4981796;28;20034;-74
2023/10/08 02:53:42;;;;;;;0.00;0.00;;;;;;;12.07;98.57;101229.69;4966061;28;20030;-74
2023/10/08 02:56:12;;;;;;;0.00;0.00;;;;;;;12.08;98.91;101231.34;4949156;28;20031;-74
2023/10/08 02:58:43;;;;;;;0.00;0.00;;;;;;;12.12;99.45;101243.44;4965552;28;20030;-74
2023/10/08 03:01:14;;;;;;;0.00;0.00;;;;;;;12.09;99.49;101231.09;4983863;28;20045;-74
2023/10/08 03:03:46;;;;;;;0.00;0.00;;;;;;;12.14;99.72;101235.81;4965251;28;20027;-74
2023/10/08 03:06:14;;;;;;;0.00;0.00;;;;;;;12.08;99.95;101223.13;4977863;28;20082;-74
2023/10/08 03:08:43;;;;;;;0.00;0.00;;;;;;;12.11;99.87;101234.41;4950850;28;20039;-76
2023/10/08 03:11:16;;;;;;;0.00;0.00;;;;;;;12.11;99.94;101236.31;4963948;28;20049;-75
2023/10/08 03:13:51;;;;;;;0.00;0.00;;;;;;;12.08;99.85;101231.34;4963106;28;20118;-74
2023/10/08 03:16:21;;;;;;;0.00;0.00;;;;;;;12.15;99.60;101240.19;4960503;28;20481;-76
2023/10/08 03:18:50;;;;;;;0.00;0.00;;;;;;;12.13;99.75;101240.44;4958682;28;20035;-75
2023/10/08 03:21:33;;;;;;;0.00;0.00;;;;;;;12.13;100.00;101239.63;4977672;28;20023;-75
2023/10/08 03:24:00;;;;;;;0.00;0.00;;;;;;;12.09;100.00;101238.47;4963778;28;20022;-74
2023/10/08 03:28:59;;;;;;;0.00;0.00;;;;;;;12.15;100.00;101242.91;4960541;28;20035;-74
2023/10/08 03:34:12;;;;;;;0.00;0.00;;;;;;;12.21;99.36;101241.91;4962172;28;20086;-74
2023/10/08 03:36:44;;;;;;;0.00;0.00;;;;;;;12.20;99.54;101229.28;4963996;28;20039;-74
2023/10/08 03:39:16;;;;;;;0.00;0.00;;;;;;;12.12;99.26;101227.00;4980226;28;21391;-75
2023/10/08 03:42:07;;;;;;;0.00;0.00;;;;;;;12.12;99.68;101240.69;4975654;28;20022;-75
2023/10/08 03:44:30;;;;;;;0.00;0.00;;;;;;;12.02;99.32;101239.50;4961589;28;20073;-75
2023/10/08 03:46:57;;;;;;;0.00;0.00;;;;;;;11.99;99.05;101247.44;4947933;28;20486;-76
2023/10/08 03:51:51;;;;;;;0.00;0.00;;;;;;;11.91;99.07;101242.34;4948963;28;20050;-75
2023/10/08 03:54:44;;;;;;;0.00;0.00;;;;;;;11.81;99.01;101232.06;4950816;28;20042;-75
2023/10/08 03:57:04;;;;;;;0.00;0.00;;;;;;;11.77;99.09;101237.25;4964452;28;20039;-75
2023/10/08 04:02:10;;;;;;;0.00;0.00;;;;;;;11.62;98.78;101243.34;4943795;28;20022;-76
2023/10/08 04:04:51;;;;;;;0.00;0.00;;;;;;;11.53;99.48;101242.13;4959501;28;20086;-75
2023/10/08 04:07:28;;;;;;;0.00;0.00;;;;;;;11.52;99.53;101246.78;4963908;28;20035;-76
2023/10/08 04:12:43;;;;;;;0.00;0.00;;;;;;;11.42;99.86;101232.09;4964098;28;20474;-74
2023/10/08 04:15:12;;;;;;;0.00;0.00;;;;;;;11.41;99.89;101231.28;4958659;28;20027;-75
2023/10/08 04:17:43;;;;;;;0.00;0.00;;;;;;;11.43;100.00;101231.03;4964860;28;20014;-73
2023/10/08 04:20:32;;;;;;;0.00;0.00;;;;;;;11.44;100.00;101229.94;4950735;28;20074;-74
2023/10/08 04:23:03;;;;;;;0.00;0.00;;;;;;;11.39;100.00;101233.44;4968898;28;20019;-76
2023/10/08 04:25:30;;;;;;;0.00;0.00;;;;;;;11.42;100.00;101234.81;4960362;28;20039;-75
2023/10/08 04:28:00;;;;;;;0.00;0.00;;;;;;;11.42;100.00;101245.78;4959951;28;20054;-75
2023/10/08 04:30:32;;;;;;;0.00;0.00;;;;;;;11.37;100.00;101232.84;4954815;28;20031;-74
2023/10/08 04:33:11;;;;;;;0.00;0.00;;;;;;;11.38;100.00;101233.69;4964130;28;20704;-74
2023/10/08 04:35:44;;;;;;;0.00;0.00;;;;;;;11.34;100.00;101231.44;4960198;28;20027;-75
2023/10/08 04:38:10;;;;;;;0.00;0.00;;;;;;;11.37;100.00;101242.97;4951360;28;20018;-74
2023/10/08 04:40:48;;;;;;;0.00;0.00;;;;;;;11.35;100.00;101229.53;4966145;28;20029;-74
2023/10/08 04:43:15;;;;;;;0.00;0.00;;;;;;;11.31;100.00;101229.22;4962935;28;20050;-74
2023/10/08 04:45:41;;;;;;;0.00;0.00;;;;;;;11.29;100.00;101225.91;4963910;28;20466;-74
2023/10/08 04:48:09;;;;;;;0.00;0.00;;;;;;;11.25;100.00;101224.75;4965297;28;20132;-75
2023/10/08 04:50:38;;;;;;;0.00;0.00;;;;;;;11.24;100.00;101222.25;4949749;28;20405;-75
2023/10/08 04:53:08;;;;;;;0.00;0.00;;;;;;;11.23;100.00;101215.13;4966665;28;20030;-74
2023/10/08 04:55:41;;;;;;;0.00;0.00;;;;;;;11.23;100.00;101224.19;4948759;28;20058;-75
2023/10/08 04:58:19;;;;;;;0.00;0.00;;;;;;;11.26;100.00;101231.88;4966618;28;20042;-74
2023/10/08 05:00:53;;;;;;;0.00;0.00;;;;;;;11.23;100.00;101224.19;4947475;28;20039;-76
2023/10/08 05:03:22;;;;;;;0.00;0.00;;;;;;;11.24;100.00;101236.75;4967457;28;20031;-74
2023/10/08 05:08:47;;;;;;;0.00;0.00;;;;;;;11.25;100.00;101230.22;4963396;28;20043;-75
2023/10/08 05:14:34;;;;;;;0.00;0.00;;;;;;;11.28;100.00;101232.44;4935857;28;20544;-75
2023/10/08 05:17:03;;;;;;;0.00;0.00;;;;;;;11.27;100.00;101230.81;4957525;28;20398;-74
2023/10/08 05:30:25;;;;;;;0.00;0.00;;;;;;;11.13;100.00;101221.28;4962150;28;20043;-74
2023/10/08 05:38:15;;;;;;;0.00;0.00;;;;;;;11.12;100.00;101230.56;4968630;28;20031;-75
2023/10/08 05:51:44;;;;;;;0.00;0.00;;;;;;;11.00;100.00;101201.38;4963807;28;20023;-78
2023/10/08 05:54:24;;;;;;;0.00;0.00;;;;;;;11.06;100.00;101217.88;4947450;28;21077;-76
2023/10/08 05:59:52;;;;;;;0.00;0.00;;;;;;;10.91;100.00;101197.41;4959957;28;20101;-74
2023/10/08 06:13:06;;;;;;;0.03;0.03;;;;;;;10.84;100.00;101199.47;4967644;28;20027;-76
2023/10/08 06:18:26;;;;;;;0.00;0.00;;;;;;;10.85;100.00;101219.44;4964200;28;19917;-75
2023/10/08 06:21:15;;;;;;;0.00;0.00;;;;;;;10.77;100.00;101201.56;4963844;28;20409;-76
2023/10/08 06:23:42;;;;;;;0.00;0.00;;;;;;;10.82;100.00;101210.66;4963656;28;20018;-75
2023/10/08 06:28:38;;;;;;;0.00;0.00;;;;;;;10.80;100.00;101201.06;4964913;28;20426;-74
2023/10/08 06:31:11;;;;;;;0.00;0.00;;;;;;;10.82;100.00;101209.84;4967103;28;20034;-75
2023/10/08 06:33:38;;;;;;;0.05;0.05;;;;;;;10.79;100.00;101210.31;4964548;28;20713;-72
2023/10/08 06:38:48;;;;;;;0.00;0.00;;;;;;;10.78;100.00;101205.94;4961471;28;20512;-75
2023/10/08 06:41:19;;;;;;;0.00;0.00;;;;;;;10.87;100.00;101218.13;4959448;28;20019;-73
2023/10/08 06:44:02;;;;;;;0.00;0.00;;;;;;;10.92;100.00;101215.50;4958013;28;20042;-74
2023/10/08 06:46:32;;;;;;;0.00;0.00;;;;;;;10.94;100.00;101207.84;4961745;28;20069;-73
2023/10/08 06:49:02;;;;;;;0.00;0.00;;;;;;;11.02;100.00;101203.84;4958801;28;20025;-75
2023/10/08 06:51:30;;;;;;;0.00;0.00;;;;;;;11.11;100.00;101207.00;4945543;28;20093;-74
2023/10/08 06:53:59;;;;;;;0.00;0.00;;;;;;;11.19;100.00;101214.81;4960921;28;20038;-73
2023/10/08 06:56:25;;;;;;;0.00;0.00;;;;;;;11.08;100.00;101186.47;4962328;28;20537;-74
2023/10/08 06:58:52;;;;;;;0.00;0.00;;;;;;;11.32;100.00;101214.44;4962428;28;20161;-75
2023/10/08 07:01:22;;;;;;;0.00;0.00;;;;;;;11.43;100.00;101222.81;4965872;28;20093;-76
2023/10/08 07:03:51;;;;;;;0.00;0.00;;;;;;;11.52;100.00;101229.50;4953442;28;20027;-77
2023/10/08 07:06:25;;;;;;;0.00;0.00;;;;;;;11.57;100.00;101229.59;4971834;28;20035;-77
2023/10/08 07:08:54;;;;;;;0.00;0.00;;;;;;;11.63;100.00;101236.78;4963963;28;20527;-76
2023/10/08 07:11:21;;;;;;;0.00;0.00;;;;;;;11.67;100.00;101226.97;4983164;28;20141;-77
2023/10/08 07:13:47;;;;;;;0.00;0.00;;;;;;;11.77;100.00;101247.34;4965250;28;20366;-76
2023/10/08 07:16:17;;;;;;;0.00;0.00;;;;;;;11.61;100.00;101203.34;4965323;28;20027;-76
2023/10/08 07:18:51;;;;;;;0.00;0.00;;;;;;;11.86;100.00;101240.38;4971150;28;20401;-78
2023/10/08 07:21:17;;;;;;;0.00;0.00;;;;;;;11.96;100.00;101246.00;4968325;28;20100;-77
2023/10/08 07:23:59;;;;;;;0.00;0.00;;;;;;;12.07;99.98;101243.41;4938610;28;20027;-76
2023/10/08 07:26:36;;;;;;;0.00;0.00;;;;;;;12.12;99.94;101243.44;4963515;28;20066;-75
2023/10/08 07:29:07;;;;;;;0.00;0.00;;;;;;;12.23;99.66;101246.03;4975436;28;20062;-76
2023/10/08 07:31:34;;;;;;;0.00;0.00;;;;;;;12.34;99.35;101257.97;4961302;28;20476;-75
2023/10/08 07:34:27;;;;;;;0.00;0.00;;;;;;;12.44;99.42;101250.91;4960365;28;20760;-77
2023/10/08 07:36:56;;;;;;;0.00;0.00;;;;;;;12.51;98.99;101252.41;4962443;28;20045;-75
2023/10/08 07:40:15;;;;;;;0.00;0.00;;;;;;;12.53;99.04;101246.66;4958511;28;20114;-75
2023/10/08 07:42:08;;;;;;;0.00;0.00;;;;;;;12.62;99.10;101257.97;4958412;28;20047;-77
2023/10/08 07:44:38;;;;;;;0.00;0.00;;;;;;;12.65;98.76;101252.78;4948790;28;20043;-77
2023/10/08 07:47:05;;;;;;;0.00;0.00;;;;;;;12.75;99.50;101252.06;4969222;28;20058;-75
2023/10/08 07:49:31;;;;;;;0.00;0.00;;;;;;;12.84;98.89;101260.66;4967857;28;20039;-74
2023/10/08 07:51:59;;;;;;;0.00;0.00;;;;;;;12.88;99.00;101245.31;4958717;28;20033;-75
2023/10/08 07:54:27;;;;;;;0.00;0.00;;;;;;;13.18;98.82;101260.38;4968933;28;20041;-74
2023/10/08 07:57:39;;;;;;;0.00;0.00;;;;;;;13.43;98.46;101263.34;4963758;28;20049;-74
2023/10/08 07:59:46;;;;;;;0.00;0.00;;;;;;;13.63;97.91;101256.31;4949537;28;20051;-76
2023/10/08 08:02:17;;;;;;;0.00;0.00;;;;;;;13.94;97.39;101261.94;4961309;28;20488;-74
2023/10/08 08:04:43;;;;;;;0.00;0.00;;;;;;;14.14;96.74;101262.03;4973778;28;20065;-74
2023/10/08 08:07:18;;;;;;;0.00;0.00;;;;;;;14.41;96.14;101265.69;4959810;28;20417;-74
2023/10/08 08:09:58;;;;;;;0.00;0.00;;;;;;;14.64;95.54;101261.66;4945949;28;20039;-75
2023/10/08 08:12:25;;;;;;;0.00;0.00;;;;;;;14.82;94.65;101261.13;4969692;28;20027;-76
2023/10/08 08:14:51;;;;;;;0.00;0.00;;;;;;;15.02;94.46;101264.97;4961117;28;20043;-76
2023/10/08 08:17:22;;;;;;;0.00;0.00;;;;;;;15.21;93.97;101261.66;4954075;28;20031;-75
2023/10/08 08:19:52;;;;;;;0.00;0.00;;;;;;;15.46;93.28;101261.66;4961616;28;20030;-76
2023/10/08 08:22:30;;;;;;;0.00;0.00;;;;;;;15.70;92.99;101264.59;4960168;28;20035;-75
2023/10/08 08:25:05;;;;;;;0.00;0.00;;;;;;;16.00;91.77;101264.81;4956691;28;20031;-75
2023/10/08 08:27:33;;;;;;;;;;;;;;;16.26;91.55;101267.47;4959046;28;20310;-76
2023/10/08 08:30:09;;;;;;;0.00;0.00;;;;;;;16.53;90.05;101264.28;4955347;28;19925;-75
2023/10/08 08:32:44;;;;;;;0.00;0.00;;;;;;;16.97;89.08;101268.09;4963316;28;20063;-75
2023/10/08 08:35:11;;;;;;;0.00;0.00;;;;;;;17.34;88.06;101273.03;4959211;28;20122;-73
2023/10/08 08:37:38;;;;;;;0.00;0.00;;;;;;;17.51;86.68;101267.06;4959582;28;20541;-76
2023/10/08 08:40:22;;;;;;;0.00;0.00;;;;;;;17.60;85.74;101262.53;4961550;28;20026;-76
2023/10/08 08:42:52;;;;;;;0.00;0.00;;;;;;;17.89;84.92;101283.81;4960605;28;20552;-76
2023/10/08 08:45:43;;;;;;;0.00;0.00;;;;;;;18.15;84.37;101269.69;4935198;28;20613;-75
2023/10/08 08:48:11;;;;;;;0.00;0.00;;;;;;;18.46;83.77;101255.44;4953258;28;20058;-72
2023/10/08 08:50:38;;;;;;;0.00;0.00;;;;;;;18.89;82.67;101269.19;4911115;28;20093;-71
2023/10/08 08:53:04;;;;;;;0.00;0.00;;;;;;;19.18;81.68;101260.66;4962529;28;20030;-73
2023/10/08 08:55:32;;;;;;;0.00;0.00;;;;;;;19.40;80.20;101270.25;4955565;28;20031;-72
2023/10/08 08:58:02;;;;;;;0.00;0.00;;;;;;;19.67;79.28;101277.81;4954318;28;20475;-74
2023/10/08 09:00:30;;;;;;;0.00;0.00;;;;;;;20.01;78.00;101273.00;4957328;28;20367;-72
2023/10/08 09:02:55;;;;;;;0.00;0.00;;;;;;;20.37;76.73;101259.19;4962951;28;20464;-71
2023/10/08 09:05:26;;;;;;;0.00;0.00;;;;;;;20.37;73.85;101275.84;4954919;28;20038;-70
2023/10/08 09:07:52;;;;;;;0.00;0.00;;;;;;;20.30;72.41;101269.88;4948971;28;20070;-72
2023/10/08 09:10:18;;;;;;;0.00;0.00;;;;;;;20.28;71.08;101266.63;4965234;28;20026;-71
2023/10/08 09:12:43;;;;;;;0.00;0.00;;;;;;;20.38;71.46;101263.59;4940986;28;20134;-71
2023/10/08 09:15:15;;;;;;;0.00;0.00;;;;;;;20.68;71.29;101269.59;4955640;28;20100;-71
2023/10/08 09:17:43;;;;;;;0.00;0.00;;;;;;;20.75;70.33;101267.22;4953095;28;20046;-72
2023/10/08 09:20:09;;;;;;;0.00;0.00;;;;;;;20.67;69.82;101276.28;4943151;28;20458;-74
2023/10/08 09:22:37;;;;;;;0.00;0.00;;;;;;;20.44;69.66;101282.91;4932005;28;20035;-72
2023/10/08 09:25:07;;;;;;;0.00;0.00;;;;;;;20.43;69.13;101295.16;4918749;28;20042;-73
2023/10/08 09:27:32;;;;;;;0.00;0.00;;;;;;;20.56;68.84;101294.34;4959225;28;20030;-74
2023/10/08 09:29:59;;;;;;;0.00;0.00;;;;;;;20.89;68.29;101302.47;4959137;28;20042;-72
2023/10/08 09:32:24;;;;;;;0.00;0.00;;;;;;;21.23;67.33;101313.03;4952559;28;20030;-71
2023/10/08 09:34:52;;;;;;;0.00;0.00;;;;;;;21.44;65.93;101307.75;4961095;28;20036;-71
2023/10/08 09:37:21;;;;;;;0.00;0.00;;;;;;;21.72;65.75;101310.38;4960667;28;20041;-70
2023/10/08 09:39:51;;;;;;;0.00;0.00;;;;;;;22.05;64.91;101307.25;4956385;28;20023;-71
2023/10/08 09:42:18;;;;;;;0.00;0.00;;;;;;;22.51;65.50;101309.84;4962978;28;20393;-74
2023/10/08 09:44:44;;;;;;;0.00;0.00;;;;;;;22.80;64.21;101312.00;4942021;28;20493;-71
2023/10/08 09:47:12;;;;;;;0.00;0.00;;;;;;;22.94;63.64;101309.03;4966131;28;20082;-71
2023/10/08 09:50:01;;;;;;;0.00;0.00;;;;;;;23.17;63.40;101313.31;4965435;28;20174;-73
2023/10/08 09:52:36;;;;;;;0.00;0.00;;;;;;;23.59;62.73;101309.13;4962797;28;20022;-71
2023/10/08 09:55:10;;;;;;;0.00;0.00;;;;;;;23.99;62.21;101317.19;4957775;28;20034;-71
2023/10/08 09:57:36;;;;;;;0.00;0.00;;;;;;;24.33;60.17;101320.97;4965224;28;20026;-71
2023/10/08 10:00:03;;;;;;;0.00;0.00;;;;;;;24.72;57.08;101332.88;4977978;28;20167;-74
2023/10/08 10:02:31;;;;;;;0.00;0.00;;;;;;;25.05;54.82;101334.91;4947509;28;20104;-72
2023/10/08 10:04:56;;;;;;;0.00;0.00;;;;;;;25.38;53.10;101336.94;4962280;28;20378;-71
2023/10/08 10:07:22;;;;;;;0.00;0.00;;;;;;;25.87;51.21;101337.03;4968824;28;20031;-71
2023/10/08 10:09:53;;;;;;;0.00;0.00;;;;;;;26.77;49.89;101339.13;4968836;28;20073;-71
2023/10/08 10:12:30;;;;;;;0.00;0.00;;;;;;;27.79;47.39;101343.59;4949466;28;20045;-71
2023/10/08 10:14:57;;;;;;;0.00;0.00;;;;;;;28.83;44.93;101334.00;4959028;28;20083;-71
2023/10/08 10:17:28;;;;;;;0.00;0.00;;;;;;;29.85;43.10;101343.25;4963614;28;20022;-71
2023/10/08 10:20:01;;;;;;;0.00;0.00;;;;;;;31.05;40.68;101341.81;4957453;28;20996;-71
2023/10/08 10:22:32;;;;;;;0.00;0.00;;;;;;;32.34;38.90;101345.06;4955486;28;20043;-70
2023/10/08 10:25:00;;;;;;;0.00;0.00;;;;;;;32.57;37.69;101337.53;4953306;28;20034;-71
2023/10/08 10:27:26;;;;;;;0.00;0.00;;;;;;;32.33;37.02;101349.09;4952926;28;20031;-71
2023/10/08 10:30:03;;;;;;;0.00;0.00;;;;;;;31.92;37.08;101337.03;4966806;28;20051;-71
2023/10/08 10:32:31;;;;;;;0.00;0.00;;;;;;;32.80;36.43;101334.44;4966800;28;20591;-71
2023/10/08 10:34:57;;;;;;;0.00;0.00;;;;;;;34.32;34.04;101335.50;4947501;28;20067;-71
2023/10/08 10:37:24;;;;;;;0.00;0.00;;;;;;;35.90;30.60;101334.72;4962467;28;20066;-72
2023/10/08 10:39:55;;;;;;;0.00;0.00;;;;;;;37.32;27.83;101329.84;4941624;28;20027;-70
2023/10/08 10:42:22;;;;;;;0.00;0.00;;;;;;;39.11;26.22;101324.13;4977079;28;20038;-70
2023/10/08 10:44:49;;;;;;;0.00;0.00;;;;;;;40.30;23.60;101327.72;4965573;28;20122;-71
2023/10/08 10:50:31;;;;;;;0.00;0.00;;;;;;;38.31;25.18;101313.53;4959849;28;20027;-71
2023/10/08 10:52:51;;;;;;;0.00;0.00;;;;;;;35.42;27.10;101309.88;4959054;28;20070;-70
2023/10/08 10:58:14;;;;;;;0.00;0.00;;;;;;;35.17;28.19;101305.13;4965465;28;20034;-71
2023/10/08 11:03:23;;;;;;;0.00;0.00;;;;;;;33.51;28.77;101305.50;4957549;28;20029;-70
2023/10/08 11:05:54;;;;;;;0.00;0.00;;;;;;;33.09;29.41;101304.19;4952681;28;20026;-70
2023/10/08 11:08:23;;;;;;;0.00;0.00;;;;;;;32.59;29.78;101301.13;4966318;28;20113;-70
2023/10/08 11:10:51;;;;;;;0.00;0.00;;;;;;;32.36;30.11;101294.53;4959163;28;20046;-69
2023/10/08 11:13:20;;;;;;;0.00;0.00;;;;;;;32.33;30.34;101305.81;4962184;28;20417;-72
2023/10/08 11:15:49;;;;;;;0.00;0.00;;;;;;;32.21;29.81;101300.50;4956040;28;20035;-71
2023/10/08 11:18:22;;;;;;;0.00;0.00;;;;;;;31.53;30.54;101303.53;4964479;28;20030;-68
2023/10/08 11:21:01;;;;;;;0.00;0.00;;;;;;;31.37;30.21;101298.97;4955236;28;20113;-69
2023/10/08 11:23:36;;;;;;;0.00;0.00;;;;;;;32.03;29.97;101292.69;4964010;28;20031;-69
2023/10/08 11:26:05;;;;;;;0.00;0.00;;;;;;;32.46;28.73;101293.00;4955058;28;20199;-71
2023/10/08 11:28:41;;;;;;;0.00;0.00;;;;;;;32.53;29.27;101298.69;4961236;28;20523;-72
2023/10/08 11:31:10;;;;;;;0.00;0.00;;;;;;;32.65;28.90;101299.53;4961077;28;20038;-71
2023/10/08 11:33:40;;;;;;;0.00;0.00;;;;;;;33.81;27.83;101295.81;4962105;28;20050;-69
2023/10/08 11:36:18;;;;;;;0.00;0.00;;;;;;;35.87;25.76;101292.88;4950880;28;20034;-70
2023/10/08 11:38:50;;;;;;;0.00;0.00;;;;;;;37.49;23.36;101292.94;4964640;28;20030;-70
2023/10/08 11:41:27;;;;;;;0.00;0.00;;;;;;;38.33;22.42;101293.91;4958247;28;20106;-71
2023/10/08 11:43:56;;;;;;;0.00;0.00;;;;;;;38.15;22.24;101277.09;4957508;28;20121;-71
2023/10/08 11:46:27;;;;;;;0.00;0.00;;;;;;;38.49;21.55;101273.16;4957671;28;20367;-69
2023/10/08 11:48:58;;;;;;;0.00;0.00;;;;;;;39.27;21.08;101280.47;4966988;28;20051;-71
2023/10/08 11:51:24;;;;;;;0.00;0.00;;;;;;;40.23;20.06;101278.41;4956123;28;20031;-71
2023/10/08 11:53:51;;;;;;;0.00;0.00;;;;;;;40.42;19.10;101268.88;4954346;28;20417;-74
2023/10/08 11:56:21;;;;;;;0.00;0.00;;;;;;;40.59;19.22;101275.34;4963168;28;20023;-73
2023/10/08 11:58:46;;;;;;;0.00;0.00;;;;;;;39.99;19.56;101267.19;4958902;28;20030;-73
2023/10/08 12:01:15;;;;;;;0.00;0.00;;;;;;;40.09;19.79;101277.56;4955321;28;20327;-73
2023/10/08 12:03:45;;;;;;;0.00;0.00;;;;;;;40.75;19.79;101273.66;4954768;28;20061;-73
2023/10/08 12:06:21;;;;;;;0.00;0.00;;;;;;;41.83;18.56;101268.09;4960693;28;20027;-74
2023/10/08 12:09:11;;;;;;;0.00;0.00;;;;;;;41.82;18.28;101260.75;4974182;28;20110;-73
2023/10/08 12:11:37;;;;;;;0.00;0.00;;;;;;;42.69;17.97;101240.31;4981287;28;20548;-73
2023/10/08 12:14:03;;;;;;;0.00;0.00;;;;;;;44.28;17.56;101249.59;4961079;28;20050;-74
2023/10/08 12:16:29;;;;;;;0.00;0.00;;;;;;;45.76;15.41;101250.22;4971335;28;20511;-73
2023/10/08 12:18:58;;;;;;;0.00;0.00;;;;;;;46.54;15.59;101240.66;4958771;28;20066;-73
2023/10/08 12:21:25;;;;;;;0.00;0.00;;;;;;;48.22;14.34;101243.50;4963566;28;20033;-73
2023/10/08 12:23:51;;;;;;;0.00;0.00;;;;;;;48.54;13.17;101246.44;4959356;28;20132;-73
2023/10/08 12:26:18;;;;;;;0.00;0.00;;;;;;;48.22;13.30;101231.91;4972287;28;20117;-74
2023/10/08 12:28:48;;;;;;;0.00;0.00;;;;;;;47.40;13.76;101232.00;4943038;28;20053;-73
2023/10/08 12:31:22;;;;;;;0.00;0.00;;;;;;;47.15;14.09;101228.50;4944585;28;20077;-74
2023/10/08 12:33:48;;;;;;;0.00;0.00;;;;;;;47.79;14.05;101226.72;4956736;28;20023;-74
2023/10/08 12:36:16;;;;;;;0.00;0.00;;;;;;;48.92;12.71;101229.84;4952860;28;20041;-73
2023/10/08 12:38:43;;;;;;;0.00;0.00;;;;;;;49.01;13.28;101226.75;4945281;28;20035;-73
2023/10/08 12:41:11;;;;;;;0.00;0.00;;;;;;;49.10;12.54;101229.44;4974438;28;20069;-74
2023/10/08 12:43:38;;;;;;;0.00;0.00;;;;;;;48.35;12.39;101229.41;4961241;28;20046;-75
2023/10/08 12:46:10;;;;;;;0.00;0.00;;;;;;;47.65;13.56;101213.91;4956362;28;20059;-75
2023/10/08 12:48:37;;;;;;;0.00;0.00;;;;;;;47.60;13.32;101200.13;4961807;28;20030;-77
2023/10/08 12:51:05;;;;;;;0.00;0.00;;;;;;;48.91;13.23;101199.25;4957062;28;20019;-74
2023/10/08 12:53:34;;;;;;;0.00;0.00;;;;;;;50.27;12.31;101211.38;4958764;28;20086;-78
2023/10/08 12:56:05;;;;;;;0.00;0.00;;;;;;;50.83;12.44;101209.75;4962866;28;20043;-76
2023/10/08 12:58:34;;;;;;;0.00;0.00;;;;;;;50.53;11.79;101192.81;4960520;28;20034;-77